Hall Beach Airport
CYUX : rendu visible

Aérodrome :











RETROUVEZ-NOUS SUR...

 
LOGIN :

S'inscrire | Disclaimer

   EN    FR    IT 

 









Légende :    VFR   VFR Marginal   IFR   IFR Intensif   IFR Très Intensif
Visi : 
Plafond : 
>= 8 km
>= 3000ft
5 à 8 km
1000 à 3000 ft
1500m à 5 km
500 à 1000 ft
800 à 1500m
200 à 500 ft
< 800m
< 200 ft
Symboles :   Orages  Brouillard  Fortes neiges  Fortes précipitations  Vent > 20 kt






- Altitude de l'aérodrome : 27 ft
- Code IATA : YUX


CYUX - Hall Beach

DERNIER METAR :
  • 220702Z AUTO 03014G19KT 3SM -SN OVC009 M16/M17 A2982 RMK SLP099

METARs EXPIRÉS :
  • 220655Z AUTO 02016KT 2 1/4SM -SN OVC009 M16/M18 A2982 RMK VIS VRB 1 1/4-3 SLP100
  • 220642Z AUTO 03014G20KT 2SM -SN OVC009 M16/M18 A2982 RMK VIS VRB 1 1/4-3 SLP101
  • 220633Z AUTO 02017KT 1 3/4SM -SN OVC009 M16/M18 A2982 RMK VIS VRB 1 1/4-2 1/2 SLP101
  • 220626Z AUTO 02014G19KT 2 1/2SM -SN OVC011 M16/M18 A2983 RMK SLP103
  • 220611Z AUTO 03014G20KT 4SM -SN OVC011 M16/M18 A2983 RMK SLP104
  • 220548Z AUTO 03016KT 6SM BR BKN013 BKN090 M16/M18 A2983 RMK SLP105
  • 220542Z AUTO 03013G19KT 7SM BKN013 BKN090 M16/M18 A2984 RMK SLP106
  • 220535Z AUTO 03016KT 9SM SCT013 M16/M18 A2984 RMK SLP106
  • 220527Z AUTO 03015KT 9SM BKN013 M16/M18 A2984 RMK SLP106
  • 220502Z AUTO 03014G19KT 6SM BR SCT011 M17/M19 A2985 RMK SLP111
  • 220431Z AUTO 04014G20KT 3SM -SN BKN011 M16/M18 A2986 RMK SLP115
  • 220418Z AUTO 03016KT 2 1/2SM -SN OVC011 M16/M18 A2986 RMK VIS VRB 1 1/4-3 SLP115

TAF AMD TAF CYUX
Valide du 22 à 07h jusqu'au 22 à 19h UTC


220644Z 2207/2219 02018KT P6SM OVC012
TEMPO 2207/2213 11/2SM -SN BLSN OVC008
FM221300 35018KT 1SM -SN BLSN VV007
TEMPO 2213/2219 3SM -SN SCT008 OVC012 RMK FCST BASED ON AUTO OBS. NXT FCST BY 221300Z



MET'MAP, la Météo Aéronautique d'un coup d'oeil ! - Copyright ORBIFLY Décembre 2007 - Disclaimer

ORBIFLY MET'MAP TEAM :

Programmation & Développement : Alexandra Zaïnal
Conception & Développement : Baudouin d'Aumeries
Co-Programmation & Développement : Marc-Olivier Méhu
Soutien technique & logistique : Manuel Goepfert

Contact : metmap@orbifly.com




SOURCES & CREDITS :

   NOAA       Earth
Advisory